sensor_id;sensor_type;location;lat;lon;timestamp;pressure;altitude;pressure_sealevel;temperature;humidity
3917;BME280;1973;50.518;7.318;2023-04-27T00:00:39;101216.31;;;6.62;100.00
3917;BME280;1973;50.518;7.318;2023-04-27T00:03:05;101211.22;;;6.59;100.00
3917;BME280;1973;50.518;7.318;2023-04-27T00:05:36;101211.56;;;6.56;100.00
3917;BME280;1973;50.518;7.318;2023-04-27T00:08:05;101209.38;;;6.51;100.00
3917;BME280;1973;50.518;7.318;2023-04-27T00:10:32;101211.81;;;6.46;100.00
3917;BME280;1973;50.518;7.318;2023-04-27T00:12:59;101221.56;;;6.41;100.00
3917;BME280;1973;50.518;7.318;2023-04-27T00:15:27;101216.28;;;6.39;100.00
3917;BME280;1973;50.518;7.318;2023-04-27T00:17:54;101213.72;;;6.38;100.00
3917;BME280;1973;50.518;7.318;2023-04-27T00:20:20;101223.31;;;6.33;100.00
3917;BME280;1973;50.518;7.318;2023-04-27T00:22:47;101212.75;;;6.30;100.00
3917;BME280;1973;50.518;7.318;2023-04-27T00:25:13;101220.25;;;6.28;100.00
3917;BME280;1973;50.518;7.318;2023-04-27T00:27:40;101220.59;;;6.25;100.00
3917;BME280;1973;50.518;7.318;2023-04-27T00:30:06;101223.69;;;6.22;100.00
3917;BME280;1973;50.518;7.318;2023-04-27T00:32:33;101223.03;;;6.20;100.00
3917;BME280;1973;50.518;7.318;2023-04-27T00:35:00;101225.09;;;6.18;100.00
3917;BME280;1973;50.518;7.318;2023-04-27T00:37:26;101219.97;;;6.15;100.00
3917;BME280;1973;50.518;7.318;2023-04-27T00:39:52;101229.19;;;6.14;100.00
3917;BME280;1973;50.518;7.318;2023-04-27T00:42:19;101232.78;;;6.15;100.00
3917;BME280;1973;50.518;7.318;2023-04-27T00:44:45;101225.44;;;6.15;100.00
3917;BME280;1973;50.518;7.318;2023-04-27T00:47:12;101224.41;;;6.16;100.00
3917;BME280;1973;50.518;7.318;2023-04-27T00:49:39;101225.44;;;6.15;100.00
3917;BME280;1973;50.518;7.318;2023-04-27T00:52:06;101222.38;;;6.10;100.00
3917;BME280;1973;50.518;7.318;2023-04-27T00:54:33;101224.09;;;6.11;100.00
3917;BME280;1973;50.518;7.318;2023-04-27T00:56:59;101230.41;;;6.12;100.00
3917;BME280;1973;50.518;7.318;2023-04-27T00:59:27;101227.84;;;6.10;100.00
3917;BME280;1973;50.518;7.318;2023-04-27T01:01:54;101233.66;;;6.07;100.00
3917;BME280;1973;50.518;7.318;2023-04-27T01:04:21;101224.59;;;6.07;100.00
3917;BME280;1973;50.518;7.318;2023-04-27T01:06:48;101232.81;;;6.07;100.00
3917;BME280;1973;50.518;7.318;2023-04-27T01:09:15;101231.13;;;6.06;100.00
3917;BME280;1973;50.518;7.318;2023-04-27T01:11:45;101228.56;;;6.04;100.00
3917;BME280;1973;50.518;7.318;2023-04-27T01:14:12;101227.88;;;6.02;100.00
3917;BME280;1973;50.518;7.318;2023-04-27T01:16:38;101225.16;;;6.02;100.00
3917;BME280;1973;50.518;7.318;2023-04-27T01:19:06;101229.94;;;6.00;100.00
3917;BME280;1973;50.518;7.318;2023-04-27T01:21:34;101232.16;;;5.97;100.00
3917;BME280;1973;50.518;7.318;2023-04-27T01:24:00;101231.31;;;5.96;100.00
3917;BME280;1973;50.518;7.318;2023-04-27T01:26:27;101230.81;;;5.93;100.00
3917;BME280;1973;50.518;7.318;2023-04-27T01:28:53;101232.00;;;5.90;100.00
3917;BME280;1973;50.518;7.318;2023-04-27T01:31:19;101228.59;;;5.88;100.00
3917;BME280;1973;50.518;7.318;2023-04-27T01:33:46;101231.50;;;5.86;100.00
3917;BME280;1973;50.518;7.318;2023-04-27T01:36:12;101226.03;;;5.86;100.00
3917;BME280;1973;50.518;7.318;2023-04-27T01:38:39;101230.78;;;5.84;100.00
3917;BME280;1973;50.518;7.318;2023-04-27T01:41:06;101225.50;;;5.83;100.00
3917;BME280;1973;50.518;7.318;2023-04-27T01:43:34;101226.53;;;5.82;100.00
3917;BME280;1973;50.518;7.318;2023-04-27T01:46:12;101227.53;;;5.81;100.00
3917;BME280;1973;50.518;7.318;2023-04-27T01:48:39;101226.19;;;5.77;100.00
3917;BME280;1973;50.518;7.318;2023-04-27T01:51:06;101226.19;;;5.77;100.00
3917;BME280;1973;50.518;7.318;2023-04-27T01:53:32;101232.00;;;5.74;100.00
3917;BME280;1973;50.518;7.318;2023-04-27T01:55:59;101230.66;;;5.70;100.00
3917;BME280;1973;50.518;7.318;2023-04-27T01:58:26;101235.59;;;5.66;100.00
3917;BME280;1973;50.518;7.318;2023-04-27T02:00:53;101248.94;;;5.61;100.00
3917;BME280;1973;50.518;7.318;2023-04-27T02:03:20;101246.03;;;5.55;100.00
3917;BME280;1973;50.518;7.318;2023-04-27T02:05:47;101249.09;;;5.52;100.00
3917;BME280;1973;50.518;7.318;2023-04-27T02:08:13;101253.19;;;5.48;100.00
3917;BME280;1973;50.518;7.318;2023-04-27T02:10:40;101254.25;;;5.47;100.00
3917;BME280;1973;50.518;7.318;2023-04-27T02:13:06;101262.44;;;5.47;100.00
3917;BME280;1973;50.518;7.318;2023-04-27T02:15:33;101261.38;;;5.48;100.00
3917;BME280;1973;50.518;7.318;2023-04-27T02:18:02;101256.78;;;5.48;100.00
3917;BME280;1973;50.518;7.318;2023-04-27T02:20:29;101257.81;;;5.47;100.00
3917;BME280;1973;50.518;7.318;2023-04-27T02:22:56;101255.06;;;5.47;100.00
3917;BME280;1973;50.518;7.318;2023-04-27T02:25:23;101255.41;;;5.44;100.00
3917;BME280;1973;50.518;7.318;2023-04-27T02:27:49;101251.00;;;5.43;100.00
3917;BME280;1973;50.518;7.318;2023-04-27T02:30:16;101253.91;;;5.42;100.00
3917;BME280;1973;50.518;7.318;2023-04-27T02:32:43;101238.72;;;5.39;100.00
3917;BME280;1973;50.518;7.318;2023-04-27T02:35:10;101235.78;;;5.40;100.00
3917;BME280;1973;50.518;7.318;2023-04-27T02:37:36;101241.44;;;5.39;100.00
3917;BME280;1973;50.518;7.318;2023-04-27T02:40:03;101246.91;;;5.39;100.00
3917;BME280;1973;50.518;7.318;2023-04-27T02:42:32;101239.88;;;5.36;100.00
3917;BME280;1973;50.518;7.318;2023-04-27T02:44:59;101248.28;;;5.35;100.00
3917;BME280;1973;50.518;7.318;2023-04-27T02:47:25;101249.44;;;5.32;100.00
3917;BME280;1973;50.518;7.318;2023-04-27T02:49:52;101249.78;;;5.29;100.00
3917;BME280;1973;50.518;7.318;2023-04-27T02:52:18;101240.94;;;5.27;100.00
3917;BME280;1973;50.518;7.318;2023-04-27T02:54:45;101248.75;;;5.22;100.00
3917;BME280;1973;50.518;7.318;2023-04-27T02:57:12;101251.84;;;5.19;100.00
3917;BME280;1973;50.518;7.318;2023-04-27T02:59:38;101249.81;;;5.13;100.00
3917;BME280;1973;50.518;7.318;2023-04-27T03:02:05;101239.38;;;5.09;100.00
3917;BME280;1973;50.518;7.318;2023-04-27T03:04:31;101237.50;;;5.01;100.00
3917;BME280;1973;50.518;7.318;2023-04-27T03:06:57;101235.47;;;4.95;100.00
3917;BME280;1973;50.518;7.318;2023-04-27T03:09:24;101236.09;;;4.89;100.00
3917;BME280;1973;50.518;7.318;2023-04-27T03:11:51;101240.19;;;4.85;100.00
3917;BME280;1973;50.518;7.318;2023-04-27T03:14:18;101234.41;;;4.80;100.00
3917;BME280;1973;50.518;7.318;2023-04-27T03:16:44;101225.88;;;4.75;100.00
3917;BME280;1973;50.518;7.318;2023-04-27T03:19:11;101226.88;;;4.74;100.00
3917;BME280;1973;50.518;7.318;2023-04-27T03:21:37;101240.69;;;4.72;100.00
3917;BME280;1973;50.518;7.318;2023-04-27T03:24:04;101241.72;;;4.71;100.00
3917;BME280;1973;50.518;7.318;2023-04-27T03:26:31;101234.53;;;4.70;100.00
3917;BME280;1973;50.518;7.318;2023-04-27T03:28:57;101243.56;;;4.71;100.00
3917;BME280;1973;50.518;7.318;2023-04-27T03:31:24;101234.38;;;4.72;100.00
3917;BME280;1973;50.518;7.318;2023-04-27T03:33:50;101241.22;;;4.76;100.00
3917;BME280;1973;50.518;7.318;2023-04-27T03:36:17;101237.44;;;4.77;100.00
3917;BME280;1973;50.518;7.318;2023-04-27T03:38:43;101247.34;;;4.78;100.00
3917;BME280;1973;50.518;7.318;2023-04-27T03:41:10;101246.16;;;4.80;100.00
3917;BME280;1973;50.518;7.318;2023-04-27T03:43:36;101249.41;;;4.84;100.00
3917;BME280;1973;50.518;7.318;2023-04-27T03:46:03;101243.97;;;4.84;100.00
3917;BME280;1973;50.518;7.318;2023-04-27T03:48:29;101255.53;;;4.86;100.00
3917;BME280;1973;50.518;7.318;2023-04-27T03:50:56;101255.69;;;4.84;100.00
3917;BME280;1973;50.518;7.318;2023-04-27T03:53:22;101256.56;;;4.85;100.00
3917;BME280;1973;50.518;7.318;2023-04-27T03:55:49;101261.16;;;4.84;100.00
3917;BME280;1973;50.518;7.318;2023-04-27T03:58:15;101266.47;;;4.86;100.00
3917;BME280;1973;50.518;7.318;2023-04-27T04:00:43;101264.59;;;4.86;100.00
3917;BME280;1973;50.518;7.318;2023-04-27T04:03:09;101266.31;;;4.87;100.00
3917;BME280;1973;50.518;7.318;2023-04-27T04:05:36;101262.72;;;4.87;100.00
3917;BME280;1973;50.518;7.318;2023-04-27T04:08:02;101261.66;;;4.88;100.00
3917;BME280;1973;50.518;7.318;2023-04-27T04:10:29;101263.38;;;4.89;100.00
3917;BME280;1973;50.518;7.318;2023-04-27T04:12:55;101261.38;;;4.91;100.00
3917;BME280;1973;50.518;7.318;2023-04-27T04:15:22;101257.59;;;4.92;100.00
3917;BME280;1973;50.518;7.318;2023-04-27T04:17:48;101256.72;;;4.91;100.00
3917;BME280;1973;50.518;7.318;2023-04-27T04:20:15;101260.16;;;4.94;100.00
3917;BME280;1973;50.518;7.318;2023-04-27T04:22:41;101260.69;;;4.97;100.00
3917;BME280;1973;50.518;7.318;2023-04-27T04:25:09;101263.25;;;4.99;100.00
3917;BME280;1973;50.518;7.318;2023-04-27T04:27:35;101262.91;;;5.02;100.00
3917;BME280;1973;50.518;7.318;2023-04-27T04:30:04;101262.41;;;5.06;100.00
3917;BME280;1973;50.518;7.318;2023-04-27T04:32:31;101256.97;;;5.06;100.00
3917;BME280;1973;50.518;7.318;2023-04-27T04:34:59;101265.66;;;5.10;100.00
3917;BME280;1973;50.518;7.318;2023-04-27T04:37:26;101266.47;;;5.10;100.00
3917;BME280;1973;50.518;7.318;2023-04-27T04:39:53;101264.47;;;5.12;100.00
3917;BME280;1973;50.518;7.318;2023-04-27T04:42:20;101268.72;;;5.15;100.00
3917;BME280;1973;50.518;7.318;2023-04-27T04:44:46;101276.75;;;5.16;100.00
3917;BME280;1973;50.518;7.318;2023-04-27T04:47:13;101282.22;;;5.16;100.00
3917;BME280;1973;50.518;7.318;2023-04-27T04:49:39;101282.22;;;5.16;100.00
3917;BME280;1973;50.518;7.318;2023-04-27T04:52:05;101277.25;;;5.20;100.00
3917;BME280;1973;50.518;7.318;2023-04-27T04:54:32;101290.72;;;5.21;100.00
3917;BME280;1973;50.518;7.318;2023-04-27T04:56:58;101282.22;;;5.24;100.00
3917;BME280;1973;50.518;7.318;2023-04-27T04:59:26;101286.63;;;5.25;100.00
3917;BME280;1973;50.518;7.318;2023-04-27T05:01:52;101290.06;;;5.27;100.00
3917;BME280;1973;50.518;7.318;2023-04-27T05:04:21;101280.50;;;5.31;100.00
3917;BME280;1973;50.518;7.318;2023-04-27T05:06:48;101291.94;;;5.35;100.00
3917;BME280;1973;50.518;7.318;2023-04-27T05:09:15;101293.31;;;5.39;100.00
3917;BME280;1973;50.518;7.318;2023-04-27T05:11:41;101286.66;;;5.42;100.00
3917;BME280;1973;50.518;7.318;2023-04-27T05:14:07;101284.59;;;5.44;100.00
3917;BME280;1973;50.518;7.318;2023-04-27T05:16:34;101291.78;;;5.45;100.00
3917;BME280;1973;50.518;7.318;2023-04-27T05:19:00;101286.31;;;5.45;100.00
3917;BME280;1973;50.518;7.318;2023-04-27T05:21:27;101293.28;;;5.47;100.00
3917;BME280;1973;50.518;7.318;2023-04-27T05:23:53;101285.81;;;5.49;100.00
3917;BME280;1973;50.518;7.318;2023-04-27T05:26:20;101294.50;;;5.53;100.00
3917;BME280;1973;50.518;7.318;2023-04-27T05:28:46;101295.19;;;5.55;100.00
3917;BME280;1973;50.518;7.318;2023-04-27T05:31:14;101297.59;;;5.58;100.00
3917;BME280;1973;50.518;7.318;2023-04-27T05:33:41;101299.13;;;5.60;100.00
3917;BME280;1973;50.518;7.318;2023-04-27T05:36:07;101306.09;;;5.63;100.00
3917;BME280;1973;50.518;7.318;2023-04-27T05:38:34;101304.75;;;5.67;100.00
3917;BME280;1973;50.518;7.318;2023-04-27T05:41:05;101307.81;;;5.72;100.00
3917;BME280;1973;50.518;7.318;2023-04-27T05:43:31;101311.91;;;5.76;100.00
3917;BME280;1973;50.518;7.318;2023-04-27T05:46:00;101318.75;;;5.80;100.00
3917;BME280;1973;50.518;7.318;2023-04-27T05:48:26;101314.47;;;5.85;100.00
3917;BME280;1973;50.518;7.318;2023-04-27T05:51:02;101322.84;;;5.92;100.00
3917;BME280;1973;50.518;7.318;2023-04-27T05:53:29;101318.75;;;5.96;100.00
3917;BME280;1973;50.518;7.318;2023-04-27T05:55:57;101322.69;;;6.02;100.00
3917;BME280;1973;50.518;7.318;2023-04-27T05:58:24;101328.31;;;6.08;100.00
3917;BME280;1973;50.518;7.318;2023-04-27T06:00:54;101321.78;;;6.17;100.00
3917;BME280;1973;50.518;7.318;2023-04-27T06:03:21;101317.34;;;6.24;100.00
3917;BME280;1973;50.518;7.318;2023-04-27T06:05:53;101320.03;;;6.32;100.00
3917;BME280;1973;50.518;7.318;2023-04-27T06:08:23;101319.34;;;6.39;100.00
3917;BME280;1973;50.518;7.318;2023-04-27T06:10:50;101326.69;;;6.46;100.00
3917;BME280;1973;50.518;7.318;2023-04-27T06:13:16;101327.66;;;6.53;100.00
3917;BME280;1973;50.518;7.318;2023-04-27T06:15:43;101318.59;;;6.61;100.00
3917;BME280;1973;50.518;7.318;2023-04-27T06:18:09;101322.31;;;6.68;100.00
3917;BME280;1973;50.518;7.318;2023-04-27T06:20:36;101326.22;;;6.73;100.00
3917;BME280;1973;50.518;7.318;2023-04-27T06:23:03;101331.16;;;6.78;100.00
3917;BME280;1973;50.518;7.318;2023-04-27T06:25:29;101325.31;;;6.81;100.00
3917;BME280;1973;50.518;7.318;2023-04-27T06:27:57;101328.38;;;6.86;100.00
3917;BME280;1973;50.518;7.318;2023-04-27T06:30:23;101326.63;;;6.93;100.00
3917;BME280;1973;50.518;7.318;2023-04-27T06:32:50;101329.13;;;7.03;100.00
3917;BME280;1973;50.518;7.318;2023-04-27T06:35:17;101328.44;;;7.09;100.00
3917;BME280;1973;50.518;7.318;2023-04-27T06:37:44;101334.03;;;7.15;100.00
3917;BME280;1973;50.518;7.318;2023-04-27T06:40:11;101331.25;;;7.23;100.00
3917;BME280;1973;50.518;7.318;2023-04-27T06:42:37;101334.59;;;7.33;100.00
3917;BME280;1973;50.518;7.318;2023-04-27T06:45:04;101325.31;;;7.43;100.00
3917;BME280;1973;50.518;7.318;2023-04-27T06:47:32;101327.97;;;7.51;100.00
3917;BME280;1973;50.518;7.318;2023-04-27T06:49:58;101322.25;;;7.60;100.00
3917;BME280;1973;50.518;7.318;2023-04-27T06:52:25;101324.94;;;7.68;100.00
3917;BME280;1973;50.518;7.318;2023-04-27T06:54:52;101325.53;;;7.78;100.00
3917;BME280;1973;50.518;7.318;2023-04-27T06:57:19;101323.56;;;7.87;100.00
3917;BME280;1973;50.518;7.318;2023-04-27T06:59:45;101324.16;;;7.97;100.00
3917;BME280;1973;50.518;7.318;2023-04-27T07:02:12;101315.50;;;8.08;100.00
3917;BME280;1973;50.518;7.318;2023-04-27T07:04:38;101307.19;;;8.16;100.00
3917;BME280;1973;50.518;7.318;2023-04-27T07:07:05;101304.31;;;8.24;100.00
3917;BME280;1973;50.518;7.318;2023-04-27T07:09:31;101293.31;;;8.32;100.00
3917;BME280;1973;50.518;7.318;2023-04-27T07:11:58;101293.03;;;8.42;100.00
3917;BME280;1973;50.518;7.318;2023-04-27T07:14:26;101293.88;;;8.43;100.00
3917;BME280;1973;50.518;7.318;2023-04-27T07:16:52;101294.53;;;8.45;100.00
3917;BME280;1973;50.518;7.318;2023-04-27T07:19:19;101297.66;;;8.56;100.00
3917;BME280;1973;50.518;7.318;2023-04-27T07:21:45;101296.88;;;8.62;100.00
3917;BME280;1973;50.518;7.318;2023-04-27T07:24:12;101293.59;;;8.67;100.00
3917;BME280;1973;50.518;7.318;2023-04-27T07:26:38;101296.41;;;8.73;100.00
3917;BME280;1973;50.518;7.318;2023-04-27T07:29:04;101292.69;;;8.81;100.00
3917;BME280;1973;50.518;7.318;2023-04-27T07:31:51;101306.13;;;8.91;100.00
3917;BME280;1973;50.518;7.318;2023-04-27T07:34:18;101301.78;;;8.96;100.00
3917;BME280;1973;50.518;7.318;2023-04-27T07:36:44;101304.59;;;9.03;100.00
3917;BME280;1973;50.518;7.318;2023-04-27T07:39:11;101294.75;;;9.08;100.00
3917;BME280;1973;50.518;7.318;2023-04-27T07:41:38;101290.16;;;9.15;100.00
3917;BME280;1973;50.518;7.318;2023-04-27T07:44:04;101280.75;;;9.24;100.00
3917;BME280;1973;50.518;7.318;2023-04-27T07:46:31;101283.38;;;9.33;100.00
3917;BME280;1973;50.518;7.318;2023-04-27T07:48:58;101281.75;;;9.38;100.00
3917;BME280;1973;50.518;7.318;2023-04-27T07:51:25;101285.19;;;9.47;100.00
3917;BME280;1973;50.518;7.318;2023-04-27T07:53:54;101283.00;;;9.57;100.00
3917;BME280;1973;50.518;7.318;2023-04-27T07:56:20;101278.00;;;9.67;100.00
3917;BME280;1973;50.518;7.318;2023-04-27T07:58:47;101277.88;;;9.75;100.00
3917;BME280;1973;50.518;7.318;2023-04-27T08:01:13;101281.75;;;9.87;100.00
3917;BME280;1973;50.518;7.318;2023-04-27T08:03:40;101278.47;;;9.98;100.00
3917;BME280;1973;50.518;7.318;2023-04-27T08:06:07;101276.88;;;10.10;99.53
3917;BME280;1973;50.518;7.318;2023-04-27T08:08:34;101268.28;;;10.20;97.80
3917;BME280;1973;50.518;7.318;2023-04-27T08:11:00;101267.53;;;10.33;96.50
3917;BME280;1973;50.518;7.318;2023-04-27T08:13:27;101262.50;;;10.43;93.87
3917;BME280;1973;50.518;7.318;2023-04-27T08:15:53;101262.34;;;10.51;92.29
3917;BME280;1973;50.518;7.318;2023-04-27T08:18:25;101253.50;;;10.62;90.52
3917;BME280;1973;50.518;7.318;2023-04-27T08:20:52;101265.19;;;10.70;88.51
3917;BME280;1973;50.518;7.318;2023-04-27T08:23:19;101255.28;;;10.83;89.53
3917;BME280;1973;50.518;7.318;2023-04-27T08:25:46;101264.00;;;10.86;85.68
3917;BME280;1973;50.518;7.318;2023-04-27T08:28:13;101265.50;;;10.95;83.67
3917;BME280;1973;50.518;7.318;2023-04-27T08:30:43;101265.13;;;11.11;83.33
3917;BME280;1973;50.518;7.318;2023-04-27T08:33:10;101254.78;;;11.27;80.29
3917;BME280;1973;50.518;7.318;2023-04-27T08:35:36;101255.00;;;11.38;76.52
3917;BME280;1973;50.518;7.318;2023-04-27T08:38:03;101240.19;;;11.52;76.17
3917;BME280;1973;50.518;7.318;2023-04-27T08:40:29;101241.47;;;11.63;75.19
3917;BME280;1973;50.518;7.318;2023-04-27T08:42:57;101246.13;;;11.69;72.28
3917;BME280;1973;50.518;7.318;2023-04-27T08:45:25;101233.00;;;11.78;70.98
3917;BME280;1973;50.518;7.318;2023-04-27T08:47:52;101232.56;;;11.87;71.77
3917;BME280;1973;50.518;7.318;2023-04-27T08:50:19;101222.59;;;11.99;71.37
3917;BME280;1973;50.518;7.318;2023-04-27T08:52:46;101225.75;;;12.09;71.27
3917;BME280;1973;50.518;7.318;2023-04-27T08:55:13;101222.75;;;12.17;69.94
3917;BME280;1973;50.518;7.318;2023-04-27T08:57:53;101222.97;;;12.23;59.96
3917;BME280;1973;50.518;7.318;2023-04-27T09:00:19;101217.22;;;12.24;66.45
3917;BME280;1973;50.518;7.318;2023-04-27T09:02:47;101221.22;;;12.35;65.72
3917;BME280;1973;50.518;7.318;2023-04-27T09:05:23;101223.97;;;12.41;59.19
3917;BME280;1973;50.518;7.318;2023-04-27T09:08:01;101215.03;;;12.46;58.81
3917;BME280;1973;50.518;7.318;2023-04-27T09:10:42;101220.31;;;12.54;60.05
3917;BME280;1973;50.518;7.318;2023-04-27T09:13:09;101216.25;;;12.63;62.72
3917;BME280;1973;50.518;7.318;2023-04-27T09:15:43;101203.88;;;12.72;59.33
3917;BME280;1973;50.518;7.318;2023-04-27T09:18:15;101213.63;;;12.81;62.00
3917;BME280;1973;50.518;7.318;2023-04-27T09:20:52;101208.25;;;12.93;61.19
3917;BME280;1973;50.518;7.318;2023-04-27T09:23:26;101212.03;;;12.98;57.27
3917;BME280;1973;50.518;7.318;2023-04-27T09:25:57;101208.81;;;13.01;55.95
3917;BME280;1973;50.518;7.318;2023-04-27T09:28:25;101201.16;;;13.10;57.04
3917;BME280;1973;50.518;7.318;2023-04-27T09:30:58;101191.28;;;13.21;56.55
3917;BME280;1973;50.518;7.318;2023-04-27T09:33:29;101193.13;;;13.33;55.49
3917;BME280;1973;50.518;7.318;2023-04-27T09:36:04;101188.94;;;13.49;53.33
3917;BME280;1973;50.518;7.318;2023-04-27T09:38:31;101194.78;;;13.65;54.36
3917;BME280;1973;50.518;7.318;2023-04-27T09:40:58;101185.72;;;13.77;53.62
3917;BME280;1973;50.518;7.318;2023-04-27T09:43:25;101183.28;;;13.87;52.81
3917;BME280;1973;50.518;7.318;2023-04-27T09:45:54;101188.47;;;14.01;52.51
3917;BME280;1973;50.518;7.318;2023-04-27T09:48:22;101172.13;;;14.18;51.98
3917;BME280;1973;50.518;7.318;2023-04-27T09:50:50;101162.03;;;14.24;50.95
3917;BME280;1973;50.518;7.318;2023-04-27T09:53:24;101166.50;;;14.43;48.58
3917;BME280;1973;50.518;7.318;2023-04-27T10:04:10;101161.38;;;14.76;44.99
3917;BME280;1973;50.518;7.318;2023-04-27T10:09:35;101163.19;;;15.12;46.20
3917;BME280;1973;50.518;7.318;2023-04-27T10:12:22;101159.44;;;15.36;45.11
3917;BME280;1973;50.518;7.318;2023-04-27T10:14:56;101156.09;;;15.57;45.42
3917;BME280;1973;50.518;7.318;2023-04-27T10:17:34;101148.63;;;15.70;43.66
3917;BME280;1973;50.518;7.318;2023-04-27T10:20:06;101148.44;;;15.41;44.99
3917;BME280;1973;50.518;7.318;2023-04-27T10:22:42;101157.13;;;15.45;42.44
3917;BME280;1973;50.518;7.318;2023-04-27T10:25:23;101160.34;;;15.19;41.87
3917;BME280;1973;50.518;7.318;2023-04-27T10:27:55;101145.78;;;15.35;44.66
3917;BME280;1973;50.518;7.318;2023-04-27T10:30:23;101143.94;;;15.58;44.06
3917;BME280;1973;50.518;7.318;2023-04-27T10:32:58;101145.13;;;15.51;41.24
3917;BME280;1973;50.518;7.318;2023-04-27T10:35:36;101139.09;;;15.54;41.87
3917;BME280;1973;50.518;7.318;2023-04-27T10:40:58;101139.31;;;15.52;43.26
3917;BME280;1973;50.518;7.318;2023-04-27T10:43:28;101129.19;;;15.58;43.35
3917;BME280;1973;50.518;7.318;2023-04-27T10:46:14;101127.00;;;15.60;41.66
3917;BME280;1973;50.518;7.318;2023-04-27T10:48:42;101129.22;;;15.81;42.86
3917;BME280;1973;50.518;7.318;2023-04-27T10:51:14;101120.13;;;15.97;42.04
3917;BME280;1973;50.518;7.318;2023-04-27T10:53:41;101117.44;;;16.26;42.26
3917;BME280;1973;50.518;7.318;2023-04-27T10:56:08;101119.28;;;16.48;42.24
3917;BME280;1973;50.518;7.318;2023-04-27T10:58:36;101116.72;;;16.70;41.77
3917;BME280;1973;50.518;7.318;2023-04-27T11:01:06;101106.47;;;16.87;41.77
3917;BME280;1973;50.518;7.318;2023-04-27T11:03:33;101102.78;;;16.98;41.95
3917;BME280;1973;50.518;7.318;2023-04-27T11:06:04;101084.25;;;17.21;41.02
3917;BME280;1973;50.518;7.318;2023-04-27T11:08:31;101096.06;;;17.28;40.98
3917;BME280;1973;50.518;7.318;2023-04-27T11:11:01;101090.59;;;17.33;40.02
3917;BME280;1973;50.518;7.318;2023-04-27T11:13:29;101080.84;;;17.52;40.29
3917;BME280;1973;50.518;7.318;2023-04-27T11:15:57;101083.50;;;17.75;40.98
3917;BME280;1973;50.518;7.318;2023-04-27T11:18:26;101079.13;;;18.01;41.14
3917;BME280;1973;50.518;7.318;2023-04-27T11:20:54;101084.13;;;17.99;39.87
3917;BME280;1973;50.518;7.318;2023-04-27T11:23:31;101082.66;;;17.96;39.44
3917;BME280;1973;50.518;7.318;2023-04-27T11:29:00;101081.34;;;17.82;36.90
3917;BME280;1973;50.518;7.318;2023-04-27T11:31:36;101072.66;;;17.95;38.44
3917;BME280;1973;50.518;7.318;2023-04-27T11:34:03;101076.00;;;17.97;38.55
3917;BME280;1973;50.518;7.318;2023-04-27T11:36:30;101076.53;;;18.16;39.41
3917;BME280;1973;50.518;7.318;2023-04-27T11:38:57;101074.66;;;18.22;38.85
3917;BME280;1973;50.518;7.318;2023-04-27T11:41:35;101075.16;;;18.40;37.49
3917;BME280;1973;50.518;7.318;2023-04-27T11:44:06;101067.13;;;18.44;36.24
3917;BME280;1973;50.518;7.318;2023-04-27T11:46:37;101073.66;;;18.33;37.29
3917;BME280;1973;50.518;7.318;2023-04-27T11:49:05;101073.22;;;18.41;37.33
3917;BME280;1973;50.518;7.318;2023-04-27T11:51:32;101057.78;;;18.55;37.37
3917;BME280;1973;50.518;7.318;2023-04-27T11:54:03;101063.69;;;18.37;35.60
3917;BME280;1973;50.518;7.318;2023-04-27T11:56:37;101057.47;;;18.52;36.06
3917;BME280;1973;50.518;7.318;2023-04-27T11:59:05;101059.25;;;18.58;36.80
3917;BME280;1973;50.518;7.318;2023-04-27T12:01:32;101054.28;;;18.43;36.85
3917;BME280;1973;50.518;7.318;2023-04-27T12:04:03;101045.38;;;18.68;37.21
3917;BME280;1973;50.518;7.318;2023-04-27T12:06:30;101057.22;;;18.53;36.91
3917;BME280;1973;50.518;7.318;2023-04-27T12:08:59;101050.91;;;18.41;36.40
3917;BME280;1973;50.518;7.318;2023-04-27T12:11:26;101042.06;;;18.71;36.93
3917;BME280;1973;50.518;7.318;2023-04-27T12:13:56;101040.59;;;18.90;36.74
3917;BME280;1973;50.518;7.318;2023-04-27T12:16:22;101043.13;;;18.91;36.85
3917;BME280;1973;50.518;7.318;2023-04-27T12:18:49;101039.28;;;18.98;36.84
3917;BME280;1973;50.518;7.318;2023-04-27T12:21:16;101037.81;;;18.90;36.32
3917;BME280;1973;50.518;7.318;2023-04-27T12:23:43;101035.38;;;18.99;36.76
3917;BME280;1973;50.518;7.318;2023-04-27T12:26:10;101030.94;;;19.03;36.50
3917;BME280;1973;50.518;7.318;2023-04-27T12:28:40;101020.47;;;19.20;37.13
3917;BME280;1973;50.518;7.318;2023-04-27T12:31:06;101018.88;;;19.29;36.17
3917;BME280;1973;50.518;7.318;2023-04-27T12:33:33;101016.81;;;19.51;36.49
3917;BME280;1973;50.518;7.318;2023-04-27T12:36:00;101016.09;;;19.71;36.29
3917;BME280;1973;50.518;7.318;2023-04-27T12:38:27;101004.97;;;19.81;36.29
3917;BME280;1973;50.518;7.318;2023-04-27T12:40:53;100999.75;;;20.00;36.61
3917;BME280;1973;50.518;7.318;2023-04-27T12:43:20;100995.38;;;20.19;36.98
3917;BME280;1973;50.518;7.318;2023-04-27T12:45:46;100995.19;;;20.35;35.94
3917;BME280;1973;50.518;7.318;2023-04-27T12:48:12;101003.56;;;20.40;36.18
3917;BME280;1973;50.518;7.318;2023-04-27T12:50:42;101012.22;;;20.34;35.95
3917;BME280;1973;50.518;7.318;2023-04-27T12:53:09;101012.81;;;20.41;35.34
3917;BME280;1973;50.518;7.318;2023-04-27T12:55:35;101019.56;;;20.60;36.36
3917;BME280;1973;50.518;7.318;2023-04-27T12:58:02;101011.78;;;20.82;35.85
3917;BME280;1973;50.518;7.318;2023-04-27T13:00:30;101018.50;;;20.97;36.23
3917;BME280;1973;50.518;7.318;2023-04-27T13:02:56;101005.06;;;21.14;36.03
3917;BME280;1973;50.518;7.318;2023-04-27T13:05:24;101001.69;;;21.37;35.26
3917;BME280;1973;50.518;7.318;2023-04-27T13:07:51;101001.94;;;21.61;35.65
3917;BME280;1973;50.518;7.318;2023-04-27T13:10:18;101002.50;;;21.68;34.13
3917;BME280;1973;50.518;7.318;2023-04-27T13:12:44;100994.56;;;21.90;34.30
3917;BME280;1973;50.518;7.318;2023-04-27T13:15:11;100990.31;;;22.08;34.20
3917;BME280;1973;50.518;7.318;2023-04-27T13:17:37;100993.38;;;22.16;33.97
3917;BME280;1973;50.518;7.318;2023-04-27T13:20:07;100990.84;;;22.15;34.47
3917;BME280;1973;50.518;7.318;2023-04-27T13:22:34;100986.41;;;22.09;34.11
3917;BME280;1973;50.518;7.318;2023-04-27T13:25:00;100996.78;;;22.08;33.21
3917;BME280;1973;50.518;7.318;2023-04-27T13:27:27;100994.22;;;22.12;33.92
3917;BME280;1973;50.518;7.318;2023-04-27T13:29:54;100990.75;;;22.35;33.98